createdAt,value
2018-03-31T00:00:59.380Z,19.50
2018-03-31T00:03:26.709Z,19.53
2018-03-31T00:05:53.741Z,18.83
2018-03-31T00:08:20.788Z,18.67
2018-03-31T00:10:47.864Z,18.70
2018-03-31T00:13:14.918Z,18.87
2018-03-31T00:15:42.216Z,18.40
2018-03-31T00:18:09.378Z,18.83
2018-03-31T00:20:36.475Z,18.77
2018-03-31T00:23:03.532Z,18.00
2018-03-31T00:25:30.617Z,18.50
2018-03-31T00:27:57.661Z,18.97
2018-03-31T00:30:24.698Z,18.87
2018-03-31T00:32:52.007Z,19.00
2018-03-31T00:35:19.111Z,20.70
2018-03-31T00:37:46.206Z,19.57
2018-03-31T00:40:13.501Z,17.67
2018-03-31T00:42:40.556Z,17.60
2018-03-31T00:45:07.599Z,18.47
2018-03-31T00:47:34.679Z,18.07
2018-03-31T00:50:01.722Z,18.23
2018-03-31T00:52:28.767Z,18.43
2018-03-31T00:54:55.877Z,20.10
2018-03-31T00:57:22.933Z,20.30
2018-03-31T00:59:49.989Z,18.97
2018-03-31T01:02:17.074Z,18.80
2018-03-31T01:04:44.105Z,19.33
2018-03-31T01:07:11.147Z,19.43
2018-03-31T01:09:38.537Z,19.73
2018-03-31T01:12:05.586Z,20.70
2018-03-31T01:14:32.620Z,20.87
2018-03-31T01:17:01.366Z,20.73
2018-03-31T01:19:31.193Z,21.50
2018-03-31T01:21:58.276Z,21.93
2018-03-31T01:24:25.388Z,22.57
2018-03-31T01:26:52.477Z,21.30
2018-03-31T01:29:19.515Z,22.60
2018-03-31T01:31:46.910Z,22.83
2018-03-31T01:34:13.951Z,20.83
2018-03-31T01:36:41.055Z,22.70
2018-03-31T01:39:08.128Z,21.70
2018-03-31T01:41:35.164Z,22.70
2018-03-31T01:44:02.270Z,22.60
2018-03-31T01:46:29.415Z,23.17
2018-03-31T01:48:56.446Z,22.73
2018-03-31T01:51:23.478Z,23.63
2018-03-31T01:53:50.842Z,23.13
2018-03-31T01:56:18.294Z,22.80
2018-03-31T01:58:45.378Z,21.97
2018-03-31T02:01:12.762Z,23.00
2018-03-31T02:03:39.797Z,21.70
2018-03-31T02:06:06.847Z,22.63
2018-03-31T02:08:33.942Z,22.07
2018-03-31T02:11:00.983Z,22.40
2018-03-31T02:13:28.078Z,22.20
2018-03-31T02:15:55.174Z,21.23
2018-03-31T02:18:22.294Z,21.67
2018-03-31T02:20:49.327Z,21.00
2018-03-31T02:23:16.482Z,20.57
2018-03-31T02:25:43.666Z,20.97
2018-03-31T02:28:10.702Z,21.60
2018-03-31T02:30:37.805Z,22.03
2018-03-31T02:33:04.841Z,21.47
2018-03-31T02:35:31.872Z,21.77
2018-03-31T02:37:59.393Z,21.40
2018-03-31T02:40:26.444Z,22.57
2018-03-31T02:42:53.491Z,23.00
2018-03-31T02:45:20.596Z,23.90
2018-03-31T02:47:47.693Z,22.80
2018-03-31T02:50:14.738Z,23.67
2018-03-31T02:52:41.826Z,23.47
2018-03-31T02:55:08.881Z,23.10
2018-03-31T02:57:35.916Z,24.23
2018-03-31T03:00:02.997Z,21.70
2018-03-31T03:02:30.129Z,24.63
2018-03-31T03:04:57.161Z,23.40
2018-03-31T03:07:24.232Z,21.27
2018-03-31T03:09:51.300Z,22.83
2018-03-31T03:12:18.316Z,23.67
2018-03-31T03:14:45.760Z,22.50
2018-03-31T03:17:12.819Z,23.20
2018-03-31T03:19:40.194Z,21.40
2018-03-31T03:22:07.266Z,23.93
2018-03-31T03:24:34.363Z,23.43
2018-03-31T03:27:01.385Z,24.47
2018-03-31T03:29:28.548Z,24.90
2018-03-31T03:31:55.600Z,24.37
2018-03-31T03:34:22.636Z,24.70
2018-03-31T03:36:49.928Z,25.10
2018-03-31T03:39:16.953Z,25.67
2018-03-31T03:41:44.825Z,25.07
2018-03-31T03:44:11.917Z,24.80
2018-03-31T03:46:38.962Z,24.80
2018-03-31T03:49:05.994Z,24.23
2018-03-31T03:51:33.349Z,23.30
2018-03-31T03:54:00.384Z,23.90
2018-03-31T03:56:27.434Z,22.83
2018-03-31T03:58:54.521Z,22.20
2018-03-31T04:01:21.621Z,20.37
2018-03-31T04:03:48.657Z,21.27
2018-03-31T04:06:15.712Z,21.97
2018-03-31T04:08:42.838Z,20.90
2018-03-31T04:11:09.869Z,20.90
2018-03-31T04:13:37.247Z,20.40
2018-03-31T04:16:04.350Z,20.40
2018-03-31T04:18:31.390Z,19.77
2018-03-31T04:20:58.944Z,20.30
2018-03-31T04:23:25.987Z,20.97
2018-03-31T04:25:53.042Z,20.07
2018-03-31T04:28:20.199Z,20.40
2018-03-31T04:30:47.215Z,20.60
2018-03-31T04:33:14.270Z,20.20
2018-03-31T04:35:41.386Z,20.97
2018-03-31T04:38:08.416Z,21.53
2018-03-31T04:40:35.458Z,22.00
2018-03-31T04:43:02.568Z,22.23
2018-03-31T04:45:29.589Z,22.40
2018-03-31T04:47:56.691Z,22.00
2018-03-31T04:50:23.830Z,21.13
2018-03-31T04:52:50.938Z,23.30
2018-03-31T04:55:17.964Z,21.27
2018-03-31T04:57:45.308Z,23.33
2018-03-31T05:00:12.351Z,23.20
2018-03-31T05:02:39.427Z,23.93
2018-03-31T05:05:06.750Z,23.77
2018-03-31T05:07:33.779Z,25.73
2018-03-31T05:10:00.810Z,24.30
2018-03-31T05:12:27.946Z,24.37
2018-03-31T05:14:55.024Z,26.43
2018-03-31T05:17:22.064Z,24.83
2018-03-31T05:19:49.185Z,24.07
2018-03-31T05:22:16.425Z,28.13
2018-03-31T05:24:43.538Z,27.27
2018-03-31T05:27:10.613Z,28.73
2018-03-31T05:29:37.651Z,27.80
2018-03-31T05:32:04.693Z,25.87
2018-03-31T05:34:32.033Z,41.13
2018-03-31T05:36:59.141Z,27.40
2018-03-31T05:39:26.247Z,26.60
2018-03-31T05:41:53.335Z,24.77
2018-03-31T05:44:20.364Z,26.07
2018-03-31T05:46:47.478Z,27.40
2018-03-31T05:49:14.569Z,27.30
2018-03-31T05:51:41.612Z,26.17
2018-03-31T05:54:08.658Z,23.83
2018-03-31T05:56:35.750Z,31.87
2018-03-31T05:59:02.799Z,32.33
2018-03-31T06:01:29.911Z,33.07
2018-03-31T06:03:57.098Z,31.53
2018-03-31T06:06:24.134Z,36.70
2018-03-31T06:08:51.182Z,36.80
2018-03-31T06:11:18.592Z,36.07
2018-03-31T06:13:45.690Z,32.43
2018-03-31T06:16:13.075Z,33.50
2018-03-31T06:18:40.186Z,31.97
2018-03-31T06:21:07.281Z,29.83
2018-03-31T06:23:34.358Z,31.77
2018-03-31T06:26:01.450Z,30.53
2018-03-31T06:28:28.584Z,28.30
2018-03-31T06:30:55.631Z,28.87
2018-03-31T06:33:22.726Z,26.70
2018-03-31T06:35:49.846Z,27.87
2018-03-31T06:38:16.890Z,26.20
2018-03-31T06:40:44.042Z,25.00
2018-03-31T06:43:11.093Z,26.73
2018-03-31T06:45:38.152Z,26.23
2018-03-31T06:48:05.306Z,25.13
2018-03-31T06:50:32.349Z,25.33
2018-03-31T06:52:59.382Z,25.27
2018-03-31T06:55:26.470Z,22.53
2018-03-31T06:57:53.511Z,22.03
2018-03-31T07:00:20.555Z,22.97
2018-03-31T07:02:48.137Z,23.83
2018-03-31T07:05:15.170Z,23.90
2018-03-31T07:07:42.222Z,23.13
2018-03-31T07:10:09.364Z,22.60
2018-03-31T07:12:36.410Z,23.97
2018-03-31T07:15:03.451Z,24.23
2018-03-31T07:17:30.849Z,23.67
2018-03-31T07:19:57.914Z,23.50
2018-03-31T07:22:24.968Z,21.43
2018-03-31T07:24:52.113Z,23.27
2018-03-31T07:27:19.135Z,22.00
2018-03-31T07:29:46.201Z,21.00
2018-03-31T07:32:13.863Z,21.33
2018-03-31T07:34:40.917Z,21.17
2018-03-31T07:37:08.013Z,22.40
2018-03-31T07:39:35.107Z,23.23
2018-03-31T07:42:02.250Z,67.43
2018-03-31T07:44:29.297Z,83.27
2018-03-31T07:46:56.396Z,54.30
2018-03-31T07:49:23.443Z,23.83
2018-03-31T07:51:50.476Z,30.30
2018-03-31T07:54:17.563Z,26.20
2018-03-31T07:56:44.600Z,24.87
2018-03-31T07:59:11.637Z,22.27
2018-03-31T08:01:38.926Z,24.67
2018-03-31T08:04:05.954Z,28.47
2018-03-31T08:06:32.993Z,27.43
2018-03-31T08:09:00.093Z,25.90
2018-03-31T08:11:27.210Z,25.40
2018-03-31T08:13:54.359Z,24.33
2018-03-31T08:16:21.472Z,20.20
2018-03-31T08:18:48.507Z,20.60
2018-03-31T08:21:15.545Z,19.10
2018-03-31T08:23:42.642Z,21.40
2018-03-31T08:26:09.989Z,54.53
2018-03-31T08:28:37.032Z,20.00
2018-03-31T08:31:04.137Z,24.63
2018-03-31T08:33:31.182Z,18.47
2018-03-31T08:35:58.231Z,17.53
2018-03-31T08:38:25.347Z,15.90
2018-03-31T08:40:54.016Z,17.57
2018-03-31T08:43:21.070Z,17.77
2018-03-31T08:45:48.164Z,17.17
2018-03-31T08:48:15.206Z,17.67
2018-03-31T08:50:42.325Z,15.77
2018-03-31T08:53:15.696Z,16.77
2018-03-31T08:55:42.725Z,16.40
2018-03-31T08:58:09.768Z,16.10
2018-03-31T09:00:36.849Z,16.63
2018-03-31T09:03:04.735Z,15.40
2018-03-31T09:05:31.778Z,16.80
2018-03-31T09:07:58.872Z,15.50
2018-03-31T09:10:25.896Z,15.97
2018-03-31T09:12:52.996Z,16.13
2018-03-31T09:15:20.073Z,14.17
2018-03-31T09:17:47.146Z,14.93
2018-03-31T09:20:14.180Z,15.10
2018-03-31T09:22:45.781Z,15.70
2018-03-31T09:25:08.315Z,14.00
2018-03-31T09:27:35.513Z,14.80
2018-03-31T09:30:02.584Z,15.30
2018-03-31T09:32:29.608Z,13.97
2018-03-31T09:34:56.686Z,13.00
2018-03-31T09:37:23.787Z,14.03
2018-03-31T09:39:50.815Z,14.17
2018-03-31T09:42:17.910Z,13.27
2018-03-31T09:44:45.300Z,12.73
2018-03-31T09:47:12.339Z,13.87
2018-03-31T09:49:39.384Z,13.10
2018-03-31T09:52:06.453Z,12.07
2018-03-31T09:54:33.511Z,14.53
2018-03-31T09:57:00.548Z,16.93
2018-03-31T09:59:27.632Z,14.07
2018-03-31T10:01:54.660Z,20.10
2018-03-31T10:04:21.701Z,131.53
2018-03-31T10:06:48.780Z,12.70
2018-03-31T10:09:15.828Z,15.27
2018-03-31T10:11:42.856Z,15.17
2018-03-31T10:14:10.006Z,16.37
2018-03-31T10:16:37.086Z,16.87
2018-03-31T10:19:04.132Z,15.57
2018-03-31T10:21:31.417Z,17.10
2018-03-31T10:23:58.454Z,16.77
2018-03-31T10:26:25.482Z,16.43
2018-03-31T10:28:53.317Z,18.77
2018-03-31T10:31:20.425Z,15.80
2018-03-31T10:33:47.457Z,16.87
2018-03-31T10:36:14.519Z,17.90
2018-03-31T10:38:41.546Z,17.43
2018-03-31T10:41:08.646Z,16.67
2018-03-31T10:43:35.746Z,17.97
2018-03-31T10:46:02.776Z,17.10
2018-03-31T10:48:29.869Z,22.60
2018-03-31T10:50:57.023Z,17.37
2018-03-31T10:53:24.667Z,17.83
2018-03-31T10:55:51.704Z,16.37
2018-03-31T10:58:18.810Z,15.80
2018-03-31T11:00:45.839Z,17.50
2018-03-31T11:03:12.882Z,16.67
2018-03-31T11:05:39.961Z,16.33
2018-03-31T11:08:07.006Z,19.63
2018-03-31T11:10:34.054Z,14.10
2018-03-31T11:13:01.145Z,16.10
2018-03-31T11:15:28.665Z,16.47
2018-03-31T11:17:55.715Z,14.60
2018-03-31T11:20:22.804Z,14.17
2018-03-31T11:22:50.114Z,13.23
2018-03-31T11:25:17.161Z,13.63
2018-03-31T11:27:44.248Z,13.10
2018-03-31T11:30:11.455Z,10.97
2018-03-31T11:32:38.487Z,10.20
2018-03-31T11:35:05.579Z,10.97
2018-03-31T11:37:32.674Z,10.57
2018-03-31T11:39:59.720Z,10.77
2018-03-31T11:42:26.888Z,11.30
2018-03-31T11:44:54.001Z,10.93
2018-03-31T11:47:21.052Z,10.80
2018-03-31T11:49:48.177Z,12.60
2018-03-31T11:52:15.246Z,12.33
2018-03-31T11:54:42.837Z,12.03
2018-03-31T11:57:09.948Z,12.30
2018-03-31T11:59:37.142Z,13.07
2018-03-31T12:02:04.437Z,12.30
2018-03-31T12:04:31.628Z,12.37
2018-03-31T12:06:58.885Z,11.97
2018-03-31T12:09:26.199Z,11.87
2018-03-31T12:11:53.579Z,11.77
2018-03-31T12:14:20.708Z,12.90
2018-03-31T12:16:47.873Z,12.03
2018-03-31T12:19:15.433Z,12.20
2018-03-31T12:21:42.693Z,11.80
2018-03-31T12:24:10.052Z,11.07
2018-03-31T12:26:37.389Z,12.33
2018-03-31T12:29:04.670Z,12.87
2018-03-31T12:31:32.014Z,13.43
2018-03-31T12:33:59.381Z,13.30
2018-03-31T12:36:26.687Z,12.93
2018-03-31T12:38:53.972Z,12.13
2018-03-31T12:41:21.358Z,11.90
2018-03-31T12:43:48.626Z,17.47
2018-03-31T12:46:15.792Z,13.93
2018-03-31T12:48:43.163Z,14.53
2018-03-31T12:51:10.459Z,13.23
2018-03-31T12:53:37.702Z,13.70
2018-03-31T12:56:05.289Z,13.23
2018-03-31T12:58:32.490Z,12.97
2018-03-31T13:01:00.423Z,12.57
2018-03-31T13:03:27.921Z,12.80
2018-03-31T13:05:55.152Z,13.20
2018-03-31T13:08:23.595Z,13.77
2018-03-31T13:10:50.960Z,14.13
2018-03-31T13:13:18.413Z,14.47
2018-03-31T13:15:45.734Z,12.97
2018-03-31T13:18:13.021Z,12.73
2018-03-31T13:20:40.156Z,13.17
2018-03-31T13:23:07.215Z,14.03
2018-03-31T13:25:34.385Z,13.60
2018-03-31T13:28:01.860Z,14.00
2018-03-31T13:30:29.005Z,13.80
2018-03-31T13:32:56.730Z,13.90
2018-03-31T13:35:23.775Z,13.10
2018-03-31T13:37:50.836Z,12.87
2018-03-31T13:40:17.916Z,13.97
2018-03-31T13:42:45.095Z,12.93
2018-03-31T13:45:12.205Z,12.23
2018-03-31T13:47:39.307Z,12.40
2018-03-31T13:50:06.360Z,14.10
2018-03-31T13:52:33.508Z,13.00
2018-03-31T13:55:00.674Z,12.37
2018-03-31T13:57:27.711Z,13.80
2018-03-31T13:59:54.811Z,12.40
2018-03-31T14:02:22.164Z,12.53
2018-03-31T14:04:49.202Z,12.87
2018-03-31T14:07:16.307Z,13.47
2018-03-31T14:09:43.427Z,13.47
2018-03-31T14:12:10.553Z,14.97
2018-03-31T14:14:37.654Z,12.97
2018-03-31T14:17:05.020Z,12.53
2018-03-31T14:19:32.101Z,13.67
2018-03-31T14:21:59.379Z,14.67
2018-03-31T14:24:26.463Z,13.93
2018-03-31T14:26:53.518Z,14.27
2018-03-31T14:29:20.565Z,13.40
2018-03-31T14:31:47.866Z,14.37
2018-03-31T14:34:15.167Z,15.03
2018-03-31T14:36:42.207Z,13.37
2018-03-31T14:39:09.300Z,15.07
2018-03-31T14:41:36.340Z,15.27
2018-03-31T14:44:03.392Z,13.30
2018-03-31T14:46:30.493Z,12.80
2018-03-31T14:48:57.533Z,11.97
2018-03-31T14:51:24.628Z,12.93
2018-03-31T14:53:51.710Z,16.77
2018-03-31T14:56:18.887Z,15.67
2018-03-31T14:58:45.952Z,13.43
2018-03-31T15:01:13.231Z,14.27
2018-03-31T15:03:40.386Z,12.40
2018-03-31T15:06:07.551Z,12.83
2018-03-31T15:08:34.706Z,13.60
2018-03-31T15:11:01.816Z,13.00
2018-03-31T15:13:28.867Z,11.63
2018-03-31T15:15:56.934Z,12.27
2018-03-31T15:18:24.086Z,12.20
2018-03-31T15:20:51.137Z,13.23
2018-03-31T15:23:18.392Z,9.90
2018-03-31T15:25:45.429Z,9.70
2018-03-31T15:28:12.542Z,10.47
2018-03-31T15:30:39.658Z,9.50
2018-03-31T15:33:06.758Z,11.17
2018-03-31T15:35:33.887Z,10.17
2018-03-31T15:38:01.109Z,8.90
2018-03-31T15:40:29.219Z,13.53
2018-03-31T15:42:57.209Z,10.13
2018-03-31T15:45:24.293Z,10.07
2018-03-31T15:47:51.325Z,9.40
2018-03-31T15:50:18.354Z,9.60
2018-03-31T15:52:45.589Z,9.30
2018-03-31T15:55:12.643Z,10.30
2018-03-31T15:57:39.678Z,10.13
2018-03-31T16:00:06.806Z,9.33
2018-03-31T16:02:33.838Z,10.00
2018-03-31T16:05:01.266Z,13.00
2018-03-31T16:07:28.422Z,11.10
2018-03-31T16:09:55.510Z,11.50
2018-03-31T16:12:22.565Z,11.27
2018-03-31T16:14:49.669Z,10.10
2018-03-31T16:17:16.710Z,11.70
2018-03-31T16:19:43.759Z,11.30
2018-03-31T16:22:10.943Z,11.57
2018-03-31T16:24:37.977Z,11.13
2018-03-31T16:27:05.117Z,13.77
2018-03-31T16:29:33.222Z,13.53
2018-03-31T16:32:00.337Z,12.13
2018-03-31T16:34:27.752Z,12.17
2018-03-31T16:36:55.888Z,12.20
2018-03-31T16:39:22.989Z,11.83
2018-03-31T16:41:50.040Z,13.37
2018-03-31T16:44:17.188Z,12.27
2018-03-31T16:46:44.238Z,13.17
2018-03-31T16:49:11.817Z,11.70
2018-03-31T16:51:38.914Z,11.03
2018-03-31T16:54:05.974Z,13.83
2018-03-31T16:56:33.082Z,10.80
2018-03-31T16:59:00.277Z,11.97
2018-03-31T17:01:27.331Z,12.23
2018-03-31T17:03:54.366Z,14.70
2018-03-31T17:06:21.473Z,12.40
2018-03-31T17:08:48.528Z,12.67
2018-03-31T17:11:15.573Z,18.43
2018-03-31T17:13:42.822Z,23.23
2018-03-31T17:16:09.902Z,29.37
2018-03-31T17:18:36.959Z,33.17
2018-03-31T17:21:04.156Z,33.30
2018-03-31T17:23:31.208Z,33.17
2018-03-31T17:25:58.253Z,30.97
2018-03-31T17:28:25.421Z,28.20
2018-03-31T17:30:52.472Z,15.87
2018-03-31T17:33:19.575Z,14.43
2018-03-31T17:35:46.726Z,14.07
2018-03-31T17:38:13.979Z,15.07
2018-03-31T17:40:41.010Z,14.43
2018-03-31T17:43:08.116Z,16.53
2018-03-31T17:45:35.157Z,19.10
2018-03-31T17:48:02.275Z,18.90
2018-03-31T17:50:29.474Z,19.30
2018-03-31T17:52:57.098Z,15.27
2018-03-31T17:55:24.200Z,14.80
2018-03-31T17:57:51.288Z,11.10
2018-03-31T18:00:18.317Z,9.53
2018-03-31T18:02:45.370Z,10.27
2018-03-31T18:05:12.540Z,11.23
2018-03-31T18:07:39.586Z,11.90
2018-03-31T18:10:06.694Z,10.63
2018-03-31T18:12:33.831Z,10.17
2018-03-31T18:15:00.865Z,10.40
2018-03-31T18:17:27.907Z,10.83
2018-03-31T18:19:55.089Z,10.37
2018-03-31T18:22:22.154Z,11.37
2018-03-31T18:24:49.226Z,11.90
2018-03-31T18:27:16.330Z,12.80
2018-03-31T18:29:43.438Z,12.57
2018-03-31T18:32:10.489Z,12.30
2018-03-31T18:34:37.646Z,12.73
2018-03-31T18:37:04.682Z,10.63
2018-03-31T18:39:31.862Z,12.67
2018-03-31T18:41:59.020Z,12.63
2018-03-31T18:44:26.074Z,12.27
2018-03-31T18:46:53.113Z,12.97
2018-03-31T18:49:20.270Z,12.77
2018-03-31T18:51:47.317Z,13.23
2018-03-31T18:54:14.417Z,16.43
2018-03-31T18:56:41.606Z,12.90
2018-03-31T18:59:08.707Z,12.03
2018-03-31T19:01:35.770Z,12.10
2018-03-31T19:04:02.908Z,11.13
2018-03-31T19:06:29.957Z,10.67
2018-03-31T19:08:57.066Z,12.17
2018-03-31T19:11:24.162Z,11.00
2018-03-31T19:13:51.221Z,11.07
2018-03-31T19:16:18.298Z,10.93
2018-03-31T19:18:45.444Z,11.10
2018-03-31T19:21:12.594Z,10.57
2018-03-31T19:23:39.632Z,10.33
2018-03-31T19:26:06.727Z,9.67
2018-03-31T19:28:33.832Z,9.70
2018-03-31T19:31:00.930Z,10.53
2018-03-31T19:33:28.110Z,10.57
2018-03-31T19:36:00.635Z,10.87
2018-03-31T19:38:27.721Z,11.03
2018-03-31T19:40:54.946Z,10.53
2018-03-31T19:43:21.980Z,9.60
2018-03-31T19:45:49.065Z,10.03
2018-03-31T19:48:16.182Z,10.93
2018-03-31T19:50:43.220Z,9.37
2018-03-31T19:53:10.328Z,10.37
2018-03-31T19:55:37.376Z,10.30
2018-03-31T19:58:04.638Z,11.13
2018-03-31T20:00:31.726Z,9.70
2018-03-31T20:02:58.781Z,10.53
2018-03-31T20:05:25.883Z,10.87
2018-03-31T20:07:52.984Z,10.37
2018-03-31T20:10:20.021Z,10.83
2018-03-31T20:12:47.148Z,11.57
2018-03-31T20:15:14.456Z,11.93
2018-03-31T20:17:41.495Z,11.10
2018-03-31T20:20:08.765Z,11.80
2018-03-31T20:22:35.866Z,10.03
2018-03-31T20:25:03.690Z,10.70
2018-03-31T20:27:30.798Z,10.17
2018-03-31T20:29:57.970Z,10.00
2018-03-31T20:32:25.088Z,10.07
2018-03-31T20:34:52.244Z,10.87
2018-03-31T20:37:19.344Z,11.30
2018-03-31T20:39:46.893Z,10.13
2018-03-31T20:42:14.086Z,9.60
2018-03-31T20:44:41.284Z,10.87
2018-03-31T20:47:08.317Z,10.27
2018-03-31T20:49:35.357Z,10.20
2018-03-31T20:52:02.456Z,10.30
2018-03-31T20:54:29.559Z,8.67
2018-03-31T20:56:56.594Z,9.30
2018-03-31T20:59:23.764Z,8.80
2018-03-31T21:01:50.868Z,9.43
2018-03-31T21:04:17.913Z,9.23
2018-03-31T21:06:45.010Z,8.80
2018-03-31T21:09:12.114Z,8.63
2018-03-31T21:11:39.165Z,8.63
2018-03-31T21:14:06.639Z,8.40
2018-03-31T21:16:33.687Z,7.70
2018-03-31T21:19:00.713Z,8.53
2018-03-31T21:21:27.804Z,8.97
2018-03-31T21:23:54.871Z,8.77
2018-03-31T21:26:21.925Z,8.43
2018-03-31T21:28:49.120Z,8.50
2018-03-31T21:31:16.170Z,8.77
2018-03-31T21:33:43.206Z,8.50
2018-03-31T21:36:10.393Z,8.27
2018-03-31T21:38:37.496Z,8.70
2018-03-31T21:41:04.602Z,9.33
2018-03-31T21:43:31.789Z,8.33
2018-03-31T21:45:58.823Z,9.17
2018-03-31T21:48:25.865Z,9.27
2018-03-31T21:50:53.150Z,9.20
2018-03-31T21:53:20.177Z,9.73
2018-03-31T21:55:47.228Z,9.03
2018-03-31T21:58:14.324Z,8.73
2018-03-31T22:00:41.371Z,8.23
2018-03-31T22:03:08.472Z,8.53
2018-03-31T22:05:35.714Z,8.70
2018-03-31T22:08:02.827Z,8.53
2018-03-31T22:10:29.874Z,9.00
2018-03-31T22:13:02.497Z,9.70
2018-03-31T22:15:35.050Z,9.10
2018-03-31T22:18:02.146Z,9.23
2018-03-31T22:20:29.238Z,10.00
2018-03-31T22:22:56.338Z,9.93
2018-03-31T22:25:23.377Z,9.80
2018-03-31T22:27:50.901Z,10.07
2018-03-31T22:30:17.954Z,9.63
2018-03-31T22:32:45.001Z,9.87
2018-03-31T22:35:12.234Z,9.00
2018-03-31T22:37:39.273Z,8.93
2018-03-31T22:40:06.322Z,8.30
2018-03-31T22:42:33.582Z,8.73
2018-03-31T22:45:00.674Z,8.00
2018-03-31T22:47:27.734Z,7.80
2018-03-31T22:49:54.842Z,7.50
2018-03-31T22:52:21.905Z,7.77
2018-03-31T22:54:48.937Z,7.93
2018-03-31T22:57:16.014Z,8.00
2018-03-31T22:59:43.047Z,7.60
2018-03-31T23:02:11.040Z,7.93
2018-03-31T23:04:38.295Z,7.90
2018-03-31T23:07:05.341Z,7.97
2018-03-31T23:09:32.406Z,7.70
2018-03-31T23:11:59.502Z,7.70
2018-03-31T23:14:26.626Z,7.60
2018-03-31T23:16:53.713Z,7.37
2018-03-31T23:19:20.935Z,8.10
2018-03-31T23:21:48.043Z,8.13
2018-03-31T23:24:15.090Z,8.90
2018-03-31T23:26:42.220Z,8.63
2018-03-31T23:29:09.264Z,9.80
2018-03-31T23:31:36.314Z,9.70
2018-03-31T23:34:03.409Z,9.40
2018-03-31T23:36:30.445Z,9.30
2018-03-31T23:38:57.486Z,8.40
2018-03-31T23:41:24.574Z,9.17
2018-03-31T23:43:51.682Z,9.17
2018-03-31T23:46:18.872Z,10.00
2018-03-31T23:48:46.031Z,10.03
2018-03-31T23:51:13.127Z,10.17
2018-03-31T23:53:40.229Z,9.40
2018-03-31T23:56:07.428Z,8.93
2018-03-31T23:58:34.466Z,9.03
